sensor_id;sensor_type;location;lat;lon;timestamp;pressure;altitude;pressure_sealevel;temperature;humidity
62600;BME280;48671;48.922;2.346;2022-07-29T00:01:20;101341.81;;;24.03;32.74
62600;BME280;48671;48.922;2.346;2022-07-29T00:03:46;101347.50;;;23.99;32.85
62600;BME280;48671;48.922;2.346;2022-07-29T00:06:11;101331.22;;;23.92;33.19
62600;BME280;48671;48.922;2.346;2022-07-29T00:08:36;101328.72;;;23.91;33.64
62600;BME280;48671;48.922;2.346;2022-07-29T00:11:02;101329.81;;;23.88;33.14
62600;BME280;48671;48.922;2.346;2022-07-29T00:13:27;101295.59;;;23.74;33.57
62600;BME280;48671;48.922;2.346;2022-07-29T00:15:52;101329.88;;;23.98;33.15
62600;BME280;48671;48.922;2.346;2022-07-29T00:18:18;101313.16;;;23.86;33.07
62600;BME280;48671;48.922;2.346;2022-07-29T00:20:43;101315.56;;;23.68;33.38
62600;BME280;48671;48.922;2.346;2022-07-29T00:23:08;101285.38;;;23.37;33.28
62600;BME280;48671;48.922;2.346;2022-07-29T00:25:34;101324.94;;;23.51;33.19
62600;BME280;48671;48.922;2.346;2022-07-29T00:27:59;101311.94;;;23.37;33.82
62600;BME280;48671;48.922;2.346;2022-07-29T00:30:24;101309.78;;;23.31;34.24
62600;BME280;48671;48.922;2.346;2022-07-29T00:32:50;101294.84;;;23.30;34.17
62600;BME280;48671;48.922;2.346;2022-07-29T00:35:15;101310.59;;;23.43;34.65
62600;BME280;48671;48.922;2.346;2022-07-29T00:37:59;101306.97;;;23.44;34.08
62600;BME280;48671;48.922;2.346;2022-07-29T00:40:25;101311.44;;;23.43;33.96
62600;BME280;48671;48.922;2.346;2022-07-29T00:42:51;101311.69;;;23.40;34.46
62600;BME280;48671;48.922;2.346;2022-07-29T00:45:17;101311.84;;;23.39;34.57
62600;BME280;48671;48.922;2.346;2022-07-29T00:47:43;101311.00;;;23.38;34.49
62600;BME280;48671;48.922;2.346;2022-07-29T00:50:10;101307.97;;;23.31;34.34
62600;BME280;48671;48.922;2.346;2022-07-29T00:52:38;101307.13;;;23.31;34.81
62600;BME280;48671;48.922;2.346;2022-07-29T00:55:05;101283.31;;;23.20;34.72
62600;BME280;48671;48.922;2.346;2022-07-29T00:57:31;101290.09;;;23.12;34.61
62600;BME280;48671;48.922;2.346;2022-07-29T00:59:57;101296.25;;;23.13;34.36
62600;BME280;48671;48.922;2.346;2022-07-29T01:02:22;101289.75;;;23.06;34.90
62600;BME280;48671;48.922;2.346;2022-07-29T01:04:48;101277.56;;;22.92;34.59
62600;BME280;48671;48.922;2.346;2022-07-29T01:07:13;101290.97;;;23.02;35.58
62600;BME280;48671;48.922;2.346;2022-07-29T01:09:40;101310.50;;;23.12;34.82
62600;BME280;48671;48.922;2.346;2022-07-29T01:12:06;101287.84;;;22.97;34.92
62600;BME280;48671;48.922;2.346;2022-07-29T01:14:33;101290.63;;;22.95;35.05
62600;BME280;48671;48.922;2.346;2022-07-29T01:17:10;101298.22;;;23.00;34.96
62600;BME280;48671;48.922;2.346;2022-07-29T01:28:40;101288.47;;;22.78;34.94
62600;BME280;48671;48.922;2.346;2022-07-29T01:31:11;101296.91;;;22.83;35.12
62600;BME280;48671;48.922;2.346;2022-07-29T01:33:43;101300.66;;;22.69;35.34
62600;BME280;48671;48.922;2.346;2022-07-29T01:36:36;101315.63;;;22.70;35.92
62600;BME280;48671;48.922;2.346;2022-07-29T01:39:10;101282.75;;;22.50;36.48
62600;BME280;48671;48.922;2.346;2022-07-29T01:41:40;101315.63;;;22.70;35.89
62600;BME280;48671;48.922;2.346;2022-07-29T01:44:16;101306.34;;;22.64;36.09
62600;BME280;48671;48.922;2.346;2022-07-29T01:46:49;101286.59;;;22.57;36.47
62600;BME280;48671;48.922;2.346;2022-07-29T01:49:21;101289.59;;;22.64;36.35
62600;BME280;48671;48.922;2.346;2022-07-29T01:51:55;101286.69;;;22.56;36.50
62600;BME280;48671;48.922;2.346;2022-07-29T01:54:27;101315.38;;;22.73;36.84
62600;BME280;48671;48.922;2.346;2022-07-29T01:56:56;101310.78;;;22.75;36.73
62600;BME280;48671;48.922;2.346;2022-07-29T01:59:23;101308.38;;;22.72;36.55
62600;BME280;48671;48.922;2.346;2022-07-29T02:01:52;101312.97;;;22.70;36.57
62600;BME280;48671;48.922;2.346;2022-07-29T02:04:19;101315.50;;;22.72;36.84
62600;BME280;48671;48.922;2.346;2022-07-29T02:06:48;101316.09;;;22.75;36.86
62600;BME280;48671;48.922;2.346;2022-07-29T02:09:14;101291.41;;;22.63;36.60
62600;BME280;48671;48.922;2.346;2022-07-29T02:11:48;101287.41;;;22.69;35.93
62600;BME280;48671;48.922;2.346;2022-07-29T02:14:15;101236.97;;;22.37;35.90
62600;BME280;48671;48.922;2.346;2022-07-29T02:16:43;101292.25;;;22.64;36.56
62600;BME280;48671;48.922;2.346;2022-07-29T02:19:12;101328.28;;;22.78;35.89
62600;BME280;48671;48.922;2.346;2022-07-29T02:21:39;101321.44;;;22.64;36.73
62600;BME280;48671;48.922;2.346;2022-07-29T02:24:06;101311.50;;;22.66;36.50
62600;BME280;48671;48.922;2.346;2022-07-29T02:26:33;101311.66;;;22.64;37.08
62600;BME280;48671;48.922;2.346;2022-07-29T02:29:00;101326.69;;;22.75;37.45
62600;BME280;48671;48.922;2.346;2022-07-29T02:31:33;101311.16;;;22.71;37.17
62600;BME280;48671;48.922;2.346;2022-07-29T02:34:01;101319.13;;;22.71;36.18
62600;BME280;48671;48.922;2.346;2022-07-29T02:36:29;101293.13;;;22.53;36.18
62600;BME280;48671;48.922;2.346;2022-07-29T02:38:56;101325.91;;;22.63;36.47
62600;BME280;48671;48.922;2.346;2022-07-29T02:41:27;101311.69;;;22.53;36.54
62600;BME280;48671;48.922;2.346;2022-07-29T02:43:56;101317.34;;;22.49;36.84
62600;BME280;48671;48.922;2.346;2022-07-29T02:46:33;101320.59;;;22.41;36.69
62600;BME280;48671;48.922;2.346;2022-07-29T02:49:22;101335.44;;;22.43;36.76
62600;BME280;48671;48.922;2.346;2022-07-29T02:52:02;101331.06;;;22.42;36.91
62600;BME280;48671;48.922;2.346;2022-07-29T02:54:39;101296.59;;;22.20;36.44
62600;BME280;48671;48.922;2.346;2022-07-29T02:57:17;101283.19;;;22.10;37.25
62600;BME280;48671;48.922;2.346;2022-07-29T02:59:45;101314.59;;;22.28;37.14
62600;BME280;48671;48.922;2.346;2022-07-29T03:02:14;101326.00;;;22.39;37.10
62600;BME280;48671;48.922;2.346;2022-07-29T03:04:42;101328.41;;;22.42;37.34
62600;BME280;48671;48.922;2.346;2022-07-29T03:07:09;101323.50;;;22.38;37.50
62600;BME280;48671;48.922;2.346;2022-07-29T03:09:36;101291.31;;;22.20;38.39
62600;BME280;48671;48.922;2.346;2022-07-29T03:12:02;101331.91;;;22.43;38.02
62600;BME280;48671;48.922;2.346;2022-07-29T03:14:30;101303.63;;;22.21;37.73
62600;BME280;48671;48.922;2.346;2022-07-29T03:16:57;101317.59;;;22.34;38.16
62600;BME280;48671;48.922;2.346;2022-07-29T03:19:22;101312.41;;;22.22;37.80
62600;BME280;48671;48.922;2.346;2022-07-29T03:21:48;101338.06;;;22.32;38.22
62600;BME280;48671;48.922;2.346;2022-07-29T03:24:31;101325.66;;;22.22;38.40
62600;BME280;48671;48.922;2.346;2022-07-29T03:26:57;101337.47;;;22.29;38.31
62600;BME280;48671;48.922;2.346;2022-07-29T03:29:23;101334.22;;;22.25;38.11
62600;BME280;48671;48.922;2.346;2022-07-29T03:31:49;101342.78;;;22.17;38.63
62600;BME280;48671;48.922;2.346;2022-07-29T03:34:15;101302.47;;;21.90;38.85
62600;BME280;48671;48.922;2.346;2022-07-29T03:36:40;101302.38;;;21.91;38.73
62600;BME280;48671;48.922;2.346;2022-07-29T03:39:06;101316.44;;;22.03;38.48
62600;BME280;48671;48.922;2.346;2022-07-29T03:41:35;101340.34;;;22.14;39.32
62600;BME280;48671;48.922;2.346;2022-07-29T03:44:01;101313.44;;;21.96;39.39
62600;BME280;48671;48.922;2.346;2022-07-29T03:46:28;101311.00;;;21.93;38.85
62600;BME280;48671;48.922;2.346;2022-07-29T03:48:58;101347.69;;;22.11;39.23
62600;BME280;48671;48.922;2.346;2022-07-29T03:51:25;101312.47;;;21.86;38.87
62600;BME280;48671;48.922;2.346;2022-07-29T03:53:52;101323.66;;;21.90;39.55
62600;BME280;48671;48.922;2.346;2022-07-29T03:56:21;101299.44;;;21.72;39.68
62600;BME280;48671;48.922;2.346;2022-07-29T03:58:49;101330.16;;;21.86;39.04
62600;BME280;48671;48.922;2.346;2022-07-29T04:01:15;101340.53;;;21.89;39.75
62600;BME280;48671;48.922;2.346;2022-07-29T04:03:43;101302.88;;;21.61;38.90
62600;BME280;48671;48.922;2.346;2022-07-29T04:06:10;101352.94;;;21.88;39.31
62600;BME280;48671;48.922;2.346;2022-07-29T04:08:36;101354.00;;;21.86;39.91
62600;BME280;48671;48.922;2.346;2022-07-29T04:11:02;101362.19;;;21.83;39.41
62600;BME280;48671;48.922;2.346;2022-07-29T04:13:28;101362.53;;;21.78;39.34
62600;BME280;48671;48.922;2.346;2022-07-29T04:15:53;101341.53;;;21.64;40.09
62600;BME280;48671;48.922;2.346;2022-07-29T04:18:18;101324.66;;;21.54;39.50
62600;BME280;48671;48.922;2.346;2022-07-29T04:20:44;101342.28;;;21.66;39.99
62600;BME280;48671;48.922;2.346;2022-07-29T04:23:09;101349.16;;;21.68;39.94
62600;BME280;48671;48.922;2.346;2022-07-29T04:25:43;101320.88;;;21.45;40.13
62600;BME280;48671;48.922;2.346;2022-07-29T04:28:09;101342.00;;;21.58;39.77
62600;BME280;48671;48.922;2.346;2022-07-29T04:30:35;101323.78;;;21.42;39.92
62600;BME280;48671;48.922;2.346;2022-07-29T04:33:03;101369.47;;;21.68;39.81
62600;BME280;48671;48.922;2.346;2022-07-29T04:35:29;101367.41;;;21.60;39.73
62600;BME280;48671;48.922;2.346;2022-07-29T04:37:55;101357.63;;;21.49;40.51
62600;BME280;48671;48.922;2.346;2022-07-29T04:40:20;101378.13;;;21.59;40.59
62600;BME280;48671;48.922;2.346;2022-07-29T04:42:46;101359.91;;;21.54;40.89
62600;BME280;48671;48.922;2.346;2022-07-29T04:45:11;101363.06;;;21.59;40.81
62600;BME280;48671;48.922;2.346;2022-07-29T04:47:36;101358.50;;;21.61;40.79
62600;BME280;48671;48.922;2.346;2022-07-29T04:50:02;101357.03;;;21.57;40.41
62600;BME280;48671;48.922;2.346;2022-07-29T04:52:27;101370.41;;;21.56;40.66
62600;BME280;48671;48.922;2.346;2022-07-29T04:54:53;101365.66;;;21.48;40.50
62600;BME280;48671;48.922;2.346;2022-07-29T04:57:18;101354.91;;;21.38;40.78
62600;BME280;48671;48.922;2.346;2022-07-29T04:59:43;101367.91;;;21.41;40.76
62600;BME280;48671;48.922;2.346;2022-07-29T05:02:09;101358.53;;;21.37;40.80
62600;BME280;48671;48.922;2.346;2022-07-29T05:04:34;101380.25;;;21.54;41.29
62600;BME280;48671;48.922;2.346;2022-07-29T05:06:59;101385.47;;;21.55;40.79
62600;BME280;48671;48.922;2.346;2022-07-29T05:09:25;101376.03;;;21.51;40.75
62600;BME280;48671;48.922;2.346;2022-07-29T05:11:50;101383.41;;;21.59;40.74
62600;BME280;48671;48.922;2.346;2022-07-29T05:14:15;101382.22;;;21.63;40.26
62600;BME280;48671;48.922;2.346;2022-07-29T05:16:41;101371.84;;;21.60;40.00
62600;BME280;48671;48.922;2.346;2022-07-29T05:19:07;101386.72;;;21.73;40.12
62600;BME280;48671;48.922;2.346;2022-07-29T05:21:33;101368.53;;;21.69;40.40
62600;BME280;48671;48.922;2.346;2022-07-29T05:23:58;101352.59;;;21.58;40.07
62600;BME280;48671;48.922;2.346;2022-07-29T05:26:23;101387.38;;;21.88;39.46
62600;BME280;48671;48.922;2.346;2022-07-29T05:28:48;101375.28;;;21.84;39.72
62600;BME280;48671;48.922;2.346;2022-07-29T05:31:14;101388.38;;;21.98;39.53
62600;BME280;48671;48.922;2.346;2022-07-29T05:33:40;101392.47;;;22.03;39.35
62600;BME280;48671;48.922;2.346;2022-07-29T05:36:06;101386.19;;;22.04;39.63
62600;BME280;48671;48.922;2.346;2022-07-29T05:38:32;101378.84;;;21.96;39.94
62600;BME280;48671;48.922;2.346;2022-07-29T05:40:58;101389.34;;;22.09;39.59
62600;BME280;48671;48.922;2.346;2022-07-29T05:43:25;101375.09;;;21.98;39.24
62600;BME280;48671;48.922;2.346;2022-07-29T05:45:50;101382.22;;;22.09;39.64
62600;BME280;48671;48.922;2.346;2022-07-29T05:48:15;101380.56;;;22.08;39.30
62600;BME280;48671;48.922;2.346;2022-07-29T05:50:41;101394.66;;;22.09;39.43
62600;BME280;48671;48.922;2.346;2022-07-29T05:53:06;101378.72;;;21.97;39.83
62600;BME280;48671;48.922;2.346;2022-07-29T05:55:31;101377.84;;;21.86;39.59
62600;BME280;48671;48.922;2.346;2022-07-29T05:57:57;101389.19;;;21.88;39.12
62600;BME280;48671;48.922;2.346;2022-07-29T06:00:22;101402.06;;;21.81;39.17
62600;BME280;48671;48.922;2.346;2022-07-29T06:02:47;101396.25;;;21.76;39.36
62600;BME280;48671;48.922;2.346;2022-07-29T06:05:13;101386.22;;;21.68;39.05
62600;BME280;48671;48.922;2.346;2022-07-29T06:07:40;101392.75;;;21.76;38.89
62600;BME280;48671;48.922;2.346;2022-07-29T06:10:06;101411.09;;;21.90;38.65
62600;BME280;48671;48.922;2.346;2022-07-29T06:12:31;101381.31;;;21.75;38.54
62600;BME280;48671;48.922;2.346;2022-07-29T06:14:57;101394.94;;;21.82;38.95
62600;BME280;48671;48.922;2.346;2022-07-29T06:17:22;101405.41;;;21.83;38.83
62600;BME280;48671;48.922;2.346;2022-07-29T06:19:48;101374.16;;;21.64;38.66
62600;BME280;48671;48.922;2.346;2022-07-29T06:22:15;101423.03;;;21.95;39.18
62600;BME280;48671;48.922;2.346;2022-07-29T06:24:41;101392.28;;;21.82;38.58
62600;BME280;48671;48.922;2.346;2022-07-29T06:27:09;101392.91;;;21.85;38.95
62600;BME280;48671;48.922;2.346;2022-07-29T06:29:34;101405.59;;;22.04;38.58
62600;BME280;48671;48.922;2.346;2022-07-29T06:32:00;101412.91;;;22.25;38.87
62600;BME280;48671;48.922;2.346;2022-07-29T06:34:25;101418.56;;;22.31;38.35
62600;BME280;48671;48.922;2.346;2022-07-29T06:36:51;101392.66;;;22.24;38.25
62600;BME280;48671;48.922;2.346;2022-07-29T06:39:18;101383.38;;;22.18;38.27
62600;BME280;48671;48.922;2.346;2022-07-29T06:41:49;101421.50;;;22.51;38.08
62600;BME280;48671;48.922;2.346;2022-07-29T06:44:15;101419.66;;;22.62;38.54
62600;BME280;48671;48.922;2.346;2022-07-29T06:46:40;101418.00;;;22.73;38.15
62600;BME280;48671;48.922;2.346;2022-07-29T06:49:06;101386.66;;;22.55;37.57
62600;BME280;48671;48.922;2.346;2022-07-29T06:51:32;101415.97;;;22.76;37.94
62600;BME280;48671;48.922;2.346;2022-07-29T06:53:57;101424.88;;;22.98;37.76
62600;BME280;48671;48.922;2.346;2022-07-29T06:56:23;101428.88;;;23.03;37.62
62600;BME280;48671;48.922;2.346;2022-07-29T06:58:49;101427.53;;;23.09;36.96
62600;BME280;48671;48.922;2.346;2022-07-29T07:01:15;101411.38;;;23.12;37.27
62600;BME280;48671;48.922;2.346;2022-07-29T07:03:41;101419.28;;;23.23;36.83
62600;BME280;48671;48.922;2.346;2022-07-29T07:06:07;101406.16;;;23.22;36.66
62600;BME280;48671;48.922;2.346;2022-07-29T07:08:32;101411.66;;;23.30;36.63
62600;BME280;48671;48.922;2.346;2022-07-29T07:10:57;101424.03;;;23.52;36.63
62600;BME280;48671;48.922;2.346;2022-07-29T07:13:24;101441.28;;;23.69;36.11
62600;BME280;48671;48.922;2.346;2022-07-29T07:15:49;101440.38;;;23.79;36.25
62600;BME280;48671;48.922;2.346;2022-07-29T07:18:16;101424.06;;;23.84;36.20
62600;BME280;48671;48.922;2.346;2022-07-29T07:20:42;101426.78;;;23.94;36.04
62600;BME280;48671;48.922;2.346;2022-07-29T07:23:07;101450.50;;;24.06;36.02
62600;BME280;48671;48.922;2.346;2022-07-29T07:25:33;101433.03;;;24.04;35.45
62600;BME280;48671;48.922;2.346;2022-07-29T07:27:58;101427.75;;;23.93;35.45
62600;BME280;48671;48.922;2.346;2022-07-29T07:30:24;101454.03;;;24.07;35.88
62600;BME280;48671;48.922;2.346;2022-07-29T07:32:49;101403.91;;;23.81;35.43
62600;BME280;48671;48.922;2.346;2022-07-29T07:35:15;101414.09;;;23.97;36.12
62600;BME280;48671;48.922;2.346;2022-07-29T07:37:40;101419.06;;;24.12;35.69
62600;BME280;48671;48.922;2.346;2022-07-29T07:40:07;101450.25;;;24.30;36.25
62600;BME280;48671;48.922;2.346;2022-07-29T07:42:33;101452.97;;;24.40;36.37
62600;BME280;48671;48.922;2.346;2022-07-29T07:44:58;101426.19;;;24.32;36.40
62600;BME280;48671;48.922;2.346;2022-07-29T07:47:24;101429.97;;;24.50;35.89
62600;BME280;48671;48.922;2.346;2022-07-29T07:49:50;101426.47;;;24.50;35.86
62600;BME280;48671;48.922;2.346;2022-07-29T07:52:16;101441.22;;;24.64;35.77
62600;BME280;48671;48.922;2.346;2022-07-29T07:54:42;101441.63;;;24.59;36.28
62600;BME280;48671;48.922;2.346;2022-07-29T07:57:09;101443.06;;;24.63;35.80
62600;BME280;48671;48.922;2.346;2022-07-29T07:59:34;101453.75;;;24.73;35.89
62600;BME280;48671;48.922;2.346;2022-07-29T08:02:00;101427.91;;;24.64;35.60
62600;BME280;48671;48.922;2.346;2022-07-29T08:04:26;101448.00;;;24.77;35.60
62600;BME280;48671;48.922;2.346;2022-07-29T08:06:51;101437.06;;;24.71;35.80
62600;BME280;48671;48.922;2.346;2022-07-29T08:09:19;101421.81;;;24.73;35.26
62600;BME280;48671;48.922;2.346;2022-07-29T08:11:44;101411.19;;;24.83;35.64
62600;BME280;48671;48.922;2.346;2022-07-29T08:14:10;101447.59;;;25.13;35.26
62600;BME280;48671;48.922;2.346;2022-07-29T08:16:35;101448.63;;;25.21;34.87
62600;BME280;48671;48.922;2.346;2022-07-29T08:19:00;101431.34;;;25.16;34.48
62600;BME280;48671;48.922;2.346;2022-07-29T08:21:26;101460.53;;;25.37;34.32
62600;BME280;48671;48.922;2.346;2022-07-29T08:23:51;101442.72;;;25.28;34.29
62600;BME280;48671;48.922;2.346;2022-07-29T08:26:43;101406.13;;;25.20;34.57
62600;BME280;48671;48.922;2.346;2022-07-29T08:29:08;101460.00;;;25.62;32.95
62600;BME280;48671;48.922;2.346;2022-07-29T08:31:35;101445.13;;;25.50;33.54
62600;BME280;48671;48.922;2.346;2022-07-29T08:34:00;101425.63;;;25.40;32.90
62600;BME280;48671;48.922;2.346;2022-07-29T08:36:26;101441.50;;;25.51;32.84
62600;BME280;48671;48.922;2.346;2022-07-29T08:38:52;101437.03;;;25.61;32.56
62600;BME280;48671;48.922;2.346;2022-07-29T08:41:20;101434.91;;;25.75;33.05
62600;BME280;48671;48.922;2.346;2022-07-29T08:43:47;101436.50;;;25.87;33.09
62600;BME280;48671;48.922;2.346;2022-07-29T08:46:13;101444.22;;;25.90;32.55
62600;BME280;48671;48.922;2.346;2022-07-29T08:48:41;101454.56;;;26.03;32.83
62600;BME280;48671;48.922;2.346;2022-07-29T08:51:07;101446.78;;;26.29;32.41
62600;BME280;48671;48.922;2.346;2022-07-29T08:53:33;101441.81;;;26.63;31.59
62600;BME280;48671;48.922;2.346;2022-07-29T08:55:59;101446.56;;;26.97;31.16
62600;BME280;48671;48.922;2.346;2022-07-29T08:58:26;101442.16;;;27.15;31.15
62600;BME280;48671;48.922;2.346;2022-07-29T09:00:54;101456.69;;;27.30;31.08
62600;BME280;48671;48.922;2.346;2022-07-29T09:03:20;101445.63;;;27.43;30.58
62600;BME280;48671;48.922;2.346;2022-07-29T09:05:48;101439.00;;;27.47;30.29
62600;BME280;48671;48.922;2.346;2022-07-29T09:08:15;101446.53;;;27.34;30.55
62600;BME280;48671;48.922;2.346;2022-07-29T09:10:40;101442.69;;;27.19;30.87
62600;BME280;48671;48.922;2.346;2022-07-29T09:13:06;101424.31;;;27.06;30.46
62600;BME280;48671;48.922;2.346;2022-07-29T09:15:31;101427.66;;;27.18;30.67
62600;BME280;48671;48.922;2.346;2022-07-29T09:17:57;101444.00;;;27.33;30.37
62600;BME280;48671;48.922;2.346;2022-07-29T09:20:23;101448.53;;;27.32;30.34
62600;BME280;48671;48.922;2.346;2022-07-29T09:22:51;101421.19;;;27.38;29.98
62600;BME280;48671;48.922;2.346;2022-07-29T09:25:34;101430.28;;;27.63;29.95
62600;BME280;48671;48.922;2.346;2022-07-29T09:28:11;101432.72;;;27.74;29.82
62600;BME280;48671;48.922;2.346;2022-07-29T09:30:58;101427.00;;;27.87;29.42
62600;BME280;48671;48.922;2.346;2022-07-29T09:33:31;101433.28;;;27.96;29.37
62600;BME280;48671;48.922;2.346;2022-07-29T09:36:05;101419.91;;;27.96;29.51
62600;BME280;48671;48.922;2.346;2022-07-29T09:38:32;101431.16;;;28.08;29.63
62600;BME280;48671;48.922;2.346;2022-07-29T09:40:59;101442.69;;;28.26;29.91
62600;BME280;48671;48.922;2.346;2022-07-29T09:43:24;101421.31;;;28.34;29.12
62600;BME280;48671;48.922;2.346;2022-07-29T09:45:50;101426.66;;;28.34;29.75
62600;BME280;48671;48.922;2.346;2022-07-29T09:48:18;101439.44;;;28.40;28.59
62600;BME280;48671;48.922;2.346;2022-07-29T09:50:45;101447.31;;;28.42;28.19
62600;BME280;48671;48.922;2.346;2022-07-29T09:53:12;101442.31;;;28.47;28.41
62600;BME280;48671;48.922;2.346;2022-07-29T09:55:54;101433.47;;;28.46;28.26
62600;BME280;48671;48.922;2.346;2022-07-29T09:58:21;101446.25;;;28.61;28.77
62600;BME280;48671;48.922;2.346;2022-07-29T10:00:48;101442.78;;;28.68;28.23
62600;BME280;48671;48.922;2.346;2022-07-29T10:03:15;101431.78;;;28.80;28.40
62600;BME280;48671;48.922;2.346;2022-07-29T10:05:42;101436.94;;;29.07;27.80
62600;BME280;48671;48.922;2.346;2022-07-29T10:08:09;101448.03;;;29.21;27.57
62600;BME280;48671;48.922;2.346;2022-07-29T10:10:39;101435.13;;;29.32;28.16
62600;BME280;48671;48.922;2.346;2022-07-29T10:13:11;101421.41;;;29.27;27.55
62600;BME280;48671;48.922;2.346;2022-07-29T10:15:40;101436.50;;;29.45;28.23
62600;BME280;48671;48.922;2.346;2022-07-29T10:18:07;101430.69;;;29.66;27.38
62600;BME280;48671;48.922;2.346;2022-07-29T10:20:34;101449.47;;;29.90;27.20
62600;BME280;48671;48.922;2.346;2022-07-29T10:22:59;101430.34;;;30.01;27.03
62600;BME280;48671;48.922;2.346;2022-07-29T10:25:25;101430.50;;;30.16;26.82
62600;BME280;48671;48.922;2.346;2022-07-29T10:27:51;101451.09;;;30.40;26.55
62600;BME280;48671;48.922;2.346;2022-07-29T10:30:18;101446.22;;;30.52;25.80
62600;BME280;48671;48.922;2.346;2022-07-29T10:36:31;101436.94;;;30.63;25.84
62600;BME280;48671;48.922;2.346;2022-07-29T10:43:57;101423.84;;;30.68;25.58
62600;BME280;48671;48.922;2.346;2022-07-29T10:46:24;101440.28;;;30.81;25.72
62600;BME280;48671;48.922;2.346;2022-07-29T10:49:13;101446.56;;;30.96;25.38
62600;BME280;48671;48.922;2.346;2022-07-29T10:52:08;101451.72;;;31.06;24.94
62600;BME280;48671;48.922;2.346;2022-07-29T10:59:45;101422.53;;;31.26;24.57
62600;BME280;48671;48.922;2.346;2022-07-29T11:07:24;101437.69;;;31.73;24.63
62600;BME280;48671;48.922;2.346;2022-07-29T11:15:05;101432.97;;;31.52;24.68
62600;BME280;48671;48.922;2.346;2022-07-29T11:23:00;101438.72;;;31.95;24.38
62600;BME280;48671;48.922;2.346;2022-07-29T11:25:26;101418.75;;;32.04;24.51
62600;BME280;48671;48.922;2.346;2022-07-29T11:27:53;101438.31;;;32.21;23.78
62600;BME280;48671;48.922;2.346;2022-07-29T11:30:19;101431.06;;;32.22;23.72
62600;BME280;48671;48.922;2.346;2022-07-29T11:32:45;101437.06;;;32.24;23.22
62600;BME280;48671;48.922;2.346;2022-07-29T11:35:13;101436.72;;;32.27;23.23
62600;BME280;48671;48.922;2.346;2022-07-29T11:37:39;101419.25;;;32.23;23.36
62600;BME280;48671;48.922;2.346;2022-07-29T11:45:09;101438.84;;;32.16;23.08
62600;BME280;48671;48.922;2.346;2022-07-29T11:47:40;101415.44;;;32.02;22.67
62600;BME280;48671;48.922;2.346;2022-07-29T11:50:08;101437.06;;;32.24;23.29
62600;BME280;48671;48.922;2.346;2022-07-29T11:52:36;101423.44;;;32.25;22.89
62600;BME280;48671;48.922;2.346;2022-07-29T11:55:09;101430.19;;;32.44;23.03
62600;BME280;48671;48.922;2.346;2022-07-29T11:57:35;101421.56;;;32.40;23.11
62600;BME280;48671;48.922;2.346;2022-07-29T12:00:02;101423.25;;;32.27;22.60
62600;BME280;48671;48.922;2.346;2022-07-29T12:02:43;101422.97;;;32.36;23.02
62600;BME280;48671;48.922;2.346;2022-07-29T12:05:09;101429.41;;;32.50;22.51
62600;BME280;48671;48.922;2.346;2022-07-29T12:07:39;101416.78;;;32.51;22.59
62600;BME280;48671;48.922;2.346;2022-07-29T12:10:05;101409.34;;;32.53;22.98
62600;BME280;48671;48.922;2.346;2022-07-29T12:12:31;101429.16;;;32.45;22.99
62600;BME280;48671;48.922;2.346;2022-07-29T12:14:57;101407.75;;;32.29;22.42
62600;BME280;48671;48.922;2.346;2022-07-29T12:17:33;101427.94;;;32.48;22.65
62600;BME280;48671;48.922;2.346;2022-07-29T12:20:01;101433.94;;;32.79;22.27
62600;BME280;48671;48.922;2.346;2022-07-29T12:22:32;101430.69;;;32.84;21.88
62600;BME280;48671;48.922;2.346;2022-07-29T12:25:13;101427.69;;;32.94;21.20
62600;BME280;48671;48.922;2.346;2022-07-29T12:27:40;101413.38;;;33.08;21.91
62600;BME280;48671;48.922;2.346;2022-07-29T12:30:10;101432.50;;;33.34;21.23
62600;BME280;48671;48.922;2.346;2022-07-29T12:35:08;101399.38;;;33.41;20.77
62600;BME280;48671;48.922;2.346;2022-07-29T12:37:35;101420.50;;;33.52;21.33
62600;BME280;48671;48.922;2.346;2022-07-29T12:40:03;101423.41;;;33.36;21.65
62600;BME280;48671;48.922;2.346;2022-07-29T12:42:29;101402.78;;;33.06;21.98
62600;BME280;48671;48.922;2.346;2022-07-29T12:44:54;101416.09;;;33.29;21.82
62600;BME280;48671;48.922;2.346;2022-07-29T12:47:20;101429.94;;;33.48;21.79
62600;BME280;48671;48.922;2.346;2022-07-29T12:49:47;101421.44;;;33.66;21.11
62600;BME280;48671;48.922;2.346;2022-07-29T12:52:33;101419.09;;;33.84;20.60
62600;BME280;48671;48.922;2.346;2022-07-29T12:54:59;101411.72;;;33.99;20.81
62600;BME280;48671;48.922;2.346;2022-07-29T12:57:25;101396.22;;;34.01;19.76
62600;BME280;48671;48.922;2.346;2022-07-29T13:00:07;101388.25;;;34.00;20.45
62600;BME280;48671;48.922;2.346;2022-07-29T13:02:35;101411.50;;;34.22;19.96
62600;BME280;48671;48.922;2.346;2022-07-29T13:05:01;101412.31;;;34.23;20.58
62600;BME280;48671;48.922;2.346;2022-07-29T13:07:31;101418.97;;;34.55;20.36
62600;BME280;48671;48.922;2.346;2022-07-29T13:10:20;101412.81;;;34.40;20.56
62600;BME280;48671;48.922;2.346;2022-07-29T13:13:24;101431.66;;;34.26;20.25
62600;BME280;48671;48.922;2.346;2022-07-29T13:16:06;101428.00;;;34.34;20.92
62600;BME280;48671;48.922;2.346;2022-07-29T13:18:34;101422.38;;;34.36;19.99
62600;BME280;48671;48.922;2.346;2022-07-29T13:21:14;101423.97;;;34.23;20.69
62600;BME280;48671;48.922;2.346;2022-07-29T13:23:40;101410.91;;;33.99;20.77
62600;BME280;48671;48.922;2.346;2022-07-29T13:26:09;101427.84;;;33.65;20.49
62600;BME280;48671;48.922;2.346;2022-07-29T13:28:36;101412.75;;;33.27;20.94
62600;BME280;48671;48.922;2.346;2022-07-29T13:31:01;101410.81;;;33.21;21.84
62600;BME280;48671;48.922;2.346;2022-07-29T13:33:27;101409.75;;;33.01;29.61
62600;BME280;48671;48.922;2.346;2022-07-29T13:35:52;101423.00;;;33.39;24.44
62600;BME280;48671;48.922;2.346;2022-07-29T13:38:18;101426.63;;;33.67;22.71
62600;BME280;48671;48.922;2.346;2022-07-29T13:40:43;101420.06;;;33.76;22.95